Somerville, Alabama
Current Conditions -  °F | °C
As of 11:53 PM on Sunday 19 Oct 2014 (Local Time) from KHSV Reporting Station
Clear Clear  
Wind Chill: 51°   Ceiling: Unl
Heat Index: 51°   Visibility: 10mi
Dew Point: 47°   Wind: 5mph
Humidity: 86%   Direction: 120°ESE
Pressure: 30.09"   Gusts: NA
Location:  34.47°N, 86.8°W
Report Text: KHSV 200453Z 12004KT 10SM CLR 11/08 A3009 RMK AO2 SLP187 LAST T01060083
Loading
Personal Weather Stations






























Interactive Weather Map
Tropical Storm Tracking
New forecast layout! Learn more

10-Day Weather Forecast

Advertisements
Track Severe Weather on mobile